Chitose — JD2925 — position and weather

sailwx.info

Track history (hours):
 
Tides and Currents Weather Stations Pressure Air Temp Water Temp Dewpoint Dewpoint Depression Visibility Wind Speed Wind Dir Waves Ship Positions

Chitose

Last reported at 2014-Sep-22 07:05 UTC. Time now 2014-Sep-24 02:25 UTC.
Position N 35°27' E 139°40'.

Length 33 m; draft 3.8 m.

Type: Tug. MMSI: 431000953.

Date/timePositionNaut miles runAvg speedWind from/ knotsBaromVisibWave heightAir tempDewpointWater temp
2014-Sep-22 07:05N 35°27' E 139°40'0 0.0
2014-Sep-22 06:34N 35°27' E 139°40'0 0.0
2014-Sep-22 05:33N 35°27' E 139°40'0 0.0
2014-Sep-22 04:33N 35°27' E 139°40'0 0.3
2014-Sep-22 03:33N 35°27' E 139°40'1 1.1
2014-Sep-22 02:33N 35°26' E 139°41'1 1.1
2014-Sep-22 01:33N 35°27' E 139°40'0 0.0
2014-Sep-22 00:33N 35°27' E 139°40'0 0.0
2014-Sep-21 23:33N 35°27' E 139°40'1 1.2
2014-Sep-21 22:34N 35°26' E 139°41'2 2.1
2014-Sep-21 21:33N 35°27' E 139°39'  
2014-Sep-19 09:05N 35°27' E 139°39'2 3.6
2014-Sep-19 08:34N 35°28' E 139°41'5 5.1
2014-Sep-19 07:32N 35°31' E 139°46'2 2.2
2014-Sep-19 06:32N 35°29' E 139°45'5 5.1
2014-Sep-19 05:34N 35°27' E 139°39'1 0.7
2014-Sep-19 04:34N 35°27' E 139°39'0 0.0
2014-Sep-19 03:34N 35°27' E 139°39'0 0.0
2014-Sep-19 02:34N 35°27' E 139°39'0 0.0
2014-Sep-19 01:33N 35°27' E 139°39'0 0.0
2014-Sep-19 00:33N 35°27' E 139°39'2 1.6
2014-Sep-18 23:33N 35°27' E 139°40'2 1.6
2014-Sep-18 22:34N 35°27' E 139°39'0 0.0
2014-Sep-18 21:33N 35°27' E 139°39'0 0.0
2014-Sep-18 20:33N 35°27' E 139°39'0 0.0
2014-Sep-18 07:31N 35°27' E 139°39'2 2.5
2014-Sep-18 06:33N 35°27' E 139°41'2 2.2
2014-Sep-18 05:33N 35°28' E 139°39'0 0.3
2014-Sep-18 04:33N 35°27' E 139°39'0 0.0
2014-Sep-18 03:33N 35°27' E 139°39'5 5.1
2014-Sep-18 02:33N 35°27' E 139°45'2 2.4
2014-Sep-18 01:33N 35°29' E 139°47'1 1.3
2014-Sep-18 00:34N 35°28' E 139°46'1 0.9
2014-Sep-17 23:33N 35°28' E 139°45'2 1.8
2014-Sep-17 22:33N 35°29' E 139°47'2 2.2
2014-Sep-17 21:33N 35°28' E 139°45'4 4.4
2014-Sep-17 20:33N 35°27' E 139°40'0 0.0
2014-Sep-17 07:12N 35°27' E 139°40'0 0.0
2014-Sep-17 06:33N 35°27' E 139°40'0 0.0
2014-Sep-17 05:33N 35°27' E 139°40'1 0.7
2014-Sep-17 04:33N 35°27' E 139°41'3 3.3
2014-Sep-17 03:33N 35°24' E 139°40'2 2.0
2014-Sep-17 02:33N 35°24' E 139°38'2 2.4
2014-Sep-17 01:33N 35°23' E 139°41'3 3.0
2014-Sep-17 00:33N 35°26' E 139°42'2 1.8
2014-Sep-16 23:33N 35°27' E 139°40'1 0.0
2014-Sep-15 23:09N 35°28' E 139°40'0 0.3
2014-Sep-15 22:33N 35°28' E 139°40'2 2.4
2014-Sep-15 21:33N 35°26' E 139°42'0 0.0
2014-Sep-15 20:33N 35°26' E 139°42'0 0.0
2014-Sep-15 19:33N 35°26' E 139°42'0 0.0
2014-Sep-15 18:33N 35°26' E 139°42'0 0.0
2014-Sep-15 17:33N 35°26' E 139°42'1 0.9
2014-Sep-15 16:33N 35°26' E 139°41'1 0.9
2014-Sep-15 15:33N 35°27' E 139°42'1 1.2
2014-Sep-15 14:33N 35°26' E 139°41'0 0.2
2014-Sep-15 13:33N 35°26' E 139°41'1 1.2
2014-Sep-15 12:33N 35°27' E 139°42'0 0.0
2014-Sep-15 11:33N 35°27' E 139°42'3 3.0
2014-Sep-15 10:34N 35°29' E 139°39'1 1.5
2014-Sep-15 09:33N 35°28' E 139°40'3 2.8
2014-Sep-15 08:33N 35°26' E 139°43'3 3.1
2014-Sep-15 07:33N 35°27' E 139°40'0 0.3
2014-Sep-15 06:33N 35°27' E 139°40'0 0.0
2014-Sep-15 05:33N 35°27' E 139°40'0 0.0
2014-Sep-15 04:33N 35°27' E 139°40'0 0.0
2014-Sep-15 03:33N 35°27' E 139°40'0 0.0
2014-Sep-15 02:33N 35°27' E 139°40'0 0.0
2014-Sep-15 01:33N 35°27' E 139°40'0 0.0
2014-Sep-15 00:33N 35°27' E 139°40'0 0.0
2014-Sep-14 23:33N 35°27' E 139°40'0 0.0
2014-Sep-14 22:33N 35°27' E 139°40'0 0.0
2014-Sep-14 21:33N 35°27' E 139°40'0 0.0
2014-Sep-14 05:33N 35°27' E 139°40'0 0.0
2014-Sep-14 04:33N 35°27' E 139°40'0 0.1
2014-Sep-14 03:34N 35°27' E 139°40'1 1.2
2014-Sep-14 02:33N 35°27' E 139°41'3 3.2
2014-Sep-14 01:34N 35°28' E 139°45'4 1.1
2014-Sep-13 21:34N 35°25' E 139°42'3 2.9
2014-Sep-13 20:33N 35°27' E 139°40'2 0.2
2014-Sep-13 09:33N 35°26' E 139°42'1 1.2
2014-Sep-13 08:33N 35°26' E 139°41'1 1.2
2014-Sep-13 07:33N 35°27' E 139°40'0 0.4
2014-Sep-13 06:33N 35°27' E 139°40'0 0.3
2014-Sep-13 05:33N 35°27' E 139°40'0 0.0
2014-Sep-13 04:33N 35°27' E 139°40'0 0.0
2014-Sep-13 03:33N 35°27' E 139°40'1 1.2
2014-Sep-13 02:33N 35°27' E 139°41'1 1.2
2014-Sep-13 01:33N 35°27' E 139°40'0 0.0
2014-Sep-13 00:33N 35°27' E 139°40'0 0.0
2014-Sep-12 23:33N 35°27' E 139°40'3 2.8
2014-Sep-12 22:33N 35°27' E 139°43'3 2.6
2014-Sep-12 21:33N 35°27' E 139°40'0 0.3
2014-Sep-12 20:33N 35°27' E 139°40'0 0.0
2014-Sep-12 09:05N 35°27' E 139°40'1 2.0
2014-Sep-12 08:33N 35°27' E 139°41'3 2.8
2014-Sep-12 07:33N 35°27' E 139°44'  
Track history (hours):
 
Tides and Currents Weather Stations Pressure Air Temp Water Temp Dewpoint Dewpoint Depression Visibility Wind Speed Wind Dir Waves Ship Positions

Chitose

Last reported at 2014-Sep-22 07:05 UTC. Time now 2014-Sep-24 02:25 UTC.
Position N 35°27' E 139°40'.

Length 33 m; draft 3.8 m.

Type: Tug. MMSI: 431000953.

Date/timePositionNaut miles runAvg speedWind from/ knotsBaromVisibWave heightAir tempDewpointWater temp
2014-Sep-22 07:05N 35°27' E 139°40'0 0.0
2014-Sep-22 06:34N 35°27' E 139°40'0 0.0
2014-Sep-22 05:33N 35°27' E 139°40'0 0.0
2014-Sep-22 04:33N 35°27' E 139°40'0 0.3
2014-Sep-22 03:33N 35°27' E 139°40'1 1.1
2014-Sep-22 02:33N 35°26' E 139°41'1 1.1
2014-Sep-22 01:33N 35°27' E 139°40'0 0.0
2014-Sep-22 00:33N 35°27' E 139°40'0 0.0
2014-Sep-21 23:33N 35°27' E 139°40'1 1.2
2014-Sep-21 22:34N 35°26' E 139°41'2 2.1
2014-Sep-21 21:33N 35°27' E 139°39'  
2014-Sep-19 09:05N 35°27' E 139°39'2 3.6
2014-Sep-19 08:34N 35°28' E 139°41'5 5.1
2014-Sep-19 07:32N 35°31' E 139°46'2 2.2
2014-Sep-19 06:32N 35°29' E 139°45'5 5.1
2014-Sep-19 05:34N 35°27' E 139°39'1 0.7
2014-Sep-19 04:34N 35°27' E 139°39'0 0.0
2014-Sep-19 03:34N 35°27' E 139°39'0 0.0
2014-Sep-19 02:34N 35°27' E 139°39'0 0.0
2014-Sep-19 01:33N 35°27' E 139°39'0 0.0
2014-Sep-19 00:33N 35°27' E 139°39'2 1.6
2014-Sep-18 23:33N 35°27' E 139°40'2 1.6
2014-Sep-18 22:34N 35°27' E 139°39'0 0.0
2014-Sep-18 21:33N 35°27' E 139°39'0 0.0
2014-Sep-18 20:33N 35°27' E 139°39'0 0.0
2014-Sep-18 07:31N 35°27' E 139°39'2 2.5
2014-Sep-18 06:33N 35°27' E 139°41'2 2.2
2014-Sep-18 05:33N 35°28' E 139°39'0 0.3
2014-Sep-18 04:33N 35°27' E 139°39'0 0.0
2014-Sep-18 03:33N 35°27' E 139°39'5 5.1
2014-Sep-18 02:33N 35°27' E 139°45'2 2.4
2014-Sep-18 01:33N 35°29' E 139°47'1 1.3
2014-Sep-18 00:34N 35°28' E 139°46'1 0.9
2014-Sep-17 23:33N 35°28' E 139°45'2 1.8
2014-Sep-17 22:33N 35°29' E 139°47'2 2.2
2014-Sep-17 21:33N 35°28' E 139°45'4 4.4
2014-Sep-17 20:33N 35°27' E 139°40'0 0.0
2014-Sep-17 07:12N 35°27' E 139°40'0 0.0
2014-Sep-17 06:33N 35°27' E 139°40'0 0.0
2014-Sep-17 05:33N 35°27' E 139°40'1 0.7
2014-Sep-17 04:33N 35°27' E 139°41'3 3.3
2014-Sep-17 03:33N 35°24' E 139°40'2 2.0
2014-Sep-17 02:33N 35°24' E 139°38'2 2.4
2014-Sep-17 01:33N 35°23' E 139°41'3 3.0
2014-Sep-17 00:33N 35°26' E 139°42'2 1.8
2014-Sep-16 23:33N 35°27' E 139°40'1 0.0
2014-Sep-15 23:09N 35°28' E 139°40'0 0.3
2014-Sep-15 22:33N 35°28' E 139°40'2 2.4
2014-Sep-15 21:33N 35°26' E 139°42'0 0.0
2014-Sep-15 20:33N 35°26' E 139°42'0 0.0
2014-Sep-15 19:33N 35°26' E 139°42'0 0.0
2014-Sep-15 18:33N 35°26' E 139°42'0 0.0
2014-Sep-15 17:33N 35°26' E 139°42'1 0.9
2014-Sep-15 16:33N 35°26' E 139°41'1 0.9
2014-Sep-15 15:33N 35°27' E 139°42'1 1.2
2014-Sep-15 14:33N 35°26' E 139°41'0 0.2
2014-Sep-15 13:33N 35°26' E 139°41'1 1.2
2014-Sep-15 12:33N 35°27' E 139°42'0 0.0
2014-Sep-15 11:33N 35°27' E 139°42'3 3.0
2014-Sep-15 10:34N 35°29' E 139°39'1 1.5
2014-Sep-15 09:33N 35°28' E 139°40'3 2.8
2014-Sep-15 08:33N 35°26' E 139°43'3 3.1
2014-Sep-15 07:33N 35°27' E 139°40'0 0.3
2014-Sep-15 06:33N 35°27' E 139°40'0 0.0
2014-Sep-15 05:33N 35°27' E 139°40'0 0.0
2014-Sep-15 04:33N 35°27' E 139°40'0 0.0
2014-Sep-15 03:33N 35°27' E 139°40'0 0.0
2014-Sep-15 02:33N 35°27' E 139°40'0 0.0
2014-Sep-15 01:33N 35°27' E 139°40'0 0.0
2014-Sep-15 00:33N 35°27' E 139°40'0 0.0
2014-Sep-14 23:33N 35°27' E 139°40'0 0.0
2014-Sep-14 22:33N 35°27' E 139°40'0 0.0
2014-Sep-14 21:33N 35°27' E 139°40'0 0.0
2014-Sep-14 05:33N 35°27' E 139°40'0 0.0
2014-Sep-14 04:33N 35°27' E 139°40'0 0.1
2014-Sep-14 03:34N 35°27' E 139°40'1 1.2
2014-Sep-14 02:33N 35°27' E 139°41'3 3.2
2014-Sep-14 01:34N 35°28' E 139°45'4 1.1
2014-Sep-13 21:34N 35°25' E 139°42'3 2.9
2014-Sep-13 20:33N 35°27' E 139°40'2 0.2
2014-Sep-13 09:33N 35°26' E 139°42'1 1.2
2014-Sep-13 08:33N 35°26' E 139°41'1 1.2
2014-Sep-13 07:33N 35°27' E 139°40'0 0.4
2014-Sep-13 06:33N 35°27' E 139°40'0 0.3
2014-Sep-13 05:33N 35°27' E 139°40'0 0.0
2014-Sep-13 04:33N 35°27' E 139°40'0 0.0
2014-Sep-13 03:33N 35°27' E 139°40'1 1.2
2014-Sep-13 02:33N 35°27' E 139°41'1 1.2
2014-Sep-13 01:33N 35°27' E 139°40'0 0.0
2014-Sep-13 00:33N 35°27' E 139°40'0 0.0
2014-Sep-12 23:33N 35°27' E 139°40'3 2.8
2014-Sep-12 22:33N 35°27' E 139°43'3 2.6
2014-Sep-12 21:33N 35°27' E 139°40'0 0.3
2014-Sep-12 20:33N 35°27' E 139°40'0 0.0
2014-Sep-12 09:05N 35°27' E 139°40'1 2.0
2014-Sep-12 08:33N 35°27' E 139°41'3 2.8
2014-Sep-12 07:33N 35°27' E 139°44'  

Dump ship's entire track history